createdAt,value
2018-08-28T00:02:19.836Z,4.00
2018-08-28T00:04:47.082Z,3.43
2018-08-28T00:07:14.215Z,3.33
2018-08-28T00:09:42.342Z,3.50
2018-08-28T00:12:09.568Z,3.30
2018-08-28T00:14:36.763Z,3.60
2018-08-28T00:17:03.999Z,3.87
2018-08-28T00:19:31.162Z,3.07
2018-08-28T00:21:58.422Z,3.43
2018-08-28T00:24:25.528Z,3.57
2018-08-28T00:26:52.700Z,3.83
2018-08-28T00:29:19.846Z,3.60
2018-08-28T00:31:46.979Z,3.83
2018-08-28T00:34:14.252Z,3.40
2018-08-28T00:36:41.387Z,4.00
2018-08-28T00:39:08.523Z,3.60
2018-08-28T00:41:35.649Z,4.13
2018-08-28T00:44:03.035Z,3.67
2018-08-28T00:46:30.191Z,3.50
2018-08-28T00:48:57.392Z,4.10
2018-08-28T00:51:24.575Z,4.03
2018-08-28T00:53:51.756Z,3.60
2018-08-28T00:56:18.897Z,3.73
2018-08-28T00:58:46.056Z,3.53
2018-08-28T01:01:13.163Z,3.90
2018-08-28T01:03:40.277Z,3.80
2018-08-28T01:06:07.395Z,3.77
2018-08-28T01:08:34.903Z,3.87
2018-08-28T01:11:02.063Z,4.03
2018-08-28T01:13:29.176Z,3.50
2018-08-28T01:15:56.342Z,3.37
2018-08-28T01:18:23.520Z,3.73
2018-08-28T01:20:50.692Z,4.10
2018-08-28T01:23:17.847Z,3.50
2018-08-28T01:25:44.988Z,3.23
2018-08-28T01:28:12.129Z,3.57
2018-08-28T01:30:39.224Z,3.30
2018-08-28T01:33:06.522Z,3.40
2018-08-28T01:35:34.166Z,3.63
2018-08-28T01:38:01.365Z,3.60
2018-08-28T01:40:28.837Z,3.37
2018-08-28T01:42:56.516Z,3.20
2018-08-28T01:45:23.684Z,3.63
2018-08-28T01:47:50.822Z,3.17
2018-08-28T01:50:18.094Z,3.40
2018-08-28T01:52:45.191Z,3.03
2018-08-28T01:55:12.317Z,3.40
2018-08-28T01:57:39.424Z,3.20
2018-08-28T02:00:06.880Z,3.03
2018-08-28T02:02:33.993Z,3.57
2018-08-28T02:05:01.186Z,3.90
2018-08-28T02:07:28.316Z,3.17
2018-08-28T02:09:55.417Z,3.60
2018-08-28T02:12:22.560Z,4.00
2018-08-28T02:14:49.678Z,3.73
2018-08-28T02:17:16.780Z,3.67
2018-08-28T02:19:43.898Z,2.93
2018-08-28T02:22:11.026Z,3.57
2018-08-28T02:24:38.176Z,3.97
2018-08-28T02:27:05.543Z,3.53
2018-08-28T02:29:32.666Z,3.43
2018-08-28T02:31:59.772Z,3.40
2018-08-28T02:34:26.877Z,3.40
2018-08-28T02:36:54.029Z,3.23
2018-08-28T02:39:21.273Z,3.63
2018-08-28T02:41:48.422Z,3.30
2018-08-28T02:44:15.513Z,3.83
2018-08-28T02:46:42.641Z,3.20
2018-08-28T02:49:09.758Z,3.70
2018-08-28T02:51:36.906Z,3.30
2018-08-28T02:54:04.067Z,4.07
2018-08-28T02:56:31.184Z,3.80
2018-08-28T02:58:58.295Z,3.50
2018-08-28T03:01:25.701Z,3.90
2018-08-28T03:03:52.855Z,3.33
2018-08-28T03:06:20.168Z,3.67
2018-08-28T03:08:47.403Z,3.60
2018-08-28T03:11:14.527Z,3.40
2018-08-28T03:13:41.711Z,3.53
2018-08-28T03:16:08.885Z,3.07
2018-08-28T03:18:35.968Z,3.63
2018-08-28T03:21:03.087Z,3.37
2018-08-28T03:23:30.214Z,3.43
2018-08-28T03:25:57.351Z,3.87
2018-08-28T03:28:24.466Z,3.20
2018-08-28T03:30:51.626Z,3.57
2018-08-28T03:33:18.909Z,3.53
2018-08-28T03:35:46.085Z,3.73
2018-08-28T03:38:13.442Z,4.03
2018-08-28T03:40:40.713Z,3.83
2018-08-28T03:43:08.019Z,3.13
2018-08-28T03:45:35.192Z,4.03
2018-08-28T03:48:02.306Z,3.40
2018-08-28T03:50:29.447Z,3.77
2018-08-28T03:52:56.554Z,3.47
2018-08-28T03:55:23.868Z,4.00
2018-08-28T03:57:51.027Z,3.17
2018-08-28T04:00:18.218Z,4.03
2018-08-28T04:02:45.337Z,3.80
2018-08-28T04:05:12.513Z,3.43
2018-08-28T04:07:39.639Z,4.17
2018-08-28T04:10:06.791Z,3.57
2018-08-28T04:12:34.169Z,3.60
2018-08-28T04:15:01.278Z,3.67
2018-08-28T04:17:28.566Z,3.30
2018-08-28T04:19:55.697Z,4.20
2018-08-28T04:22:22.883Z,3.83
2018-08-28T04:24:50.092Z,3.50
2018-08-28T04:27:17.191Z,4.07
2018-08-28T04:29:44.304Z,4.20
2018-08-28T04:32:11.553Z,4.33
2018-08-28T04:34:38.725Z,3.80
2018-08-28T04:37:05.887Z,3.63
2018-08-28T04:39:32.986Z,3.90
2018-08-28T04:42:00.190Z,3.73
2018-08-28T04:44:27.223Z,3.87
2018-08-28T04:46:54.368Z,4.20
2018-08-28T04:49:21.508Z,4.27
2018-08-28T04:51:48.662Z,4.33
2018-08-28T04:54:15.856Z,4.07
2018-08-28T04:56:42.952Z,4.13
2018-08-28T04:59:10.084Z,3.90
2018-08-28T05:01:37.229Z,3.93
2018-08-28T05:04:04.821Z,4.03
2018-08-28T05:06:31.975Z,4.47
2018-08-28T05:08:59.070Z,4.70
2018-08-28T05:11:26.161Z,4.20
2018-08-28T05:13:53.308Z,4.37
2018-08-28T05:16:20.489Z,4.17
2018-08-28T05:18:47.619Z,4.03
2018-08-28T05:21:14.753Z,4.20
2018-08-28T05:23:41.914Z,4.07
2018-08-28T05:26:09.026Z,4.40
2018-08-28T05:28:36.181Z,4.03
2018-08-28T05:31:03.308Z,4.23
2018-08-28T05:33:30.410Z,3.80
2018-08-28T05:35:57.516Z,3.67
2018-08-28T05:38:25.768Z,4.30
2018-08-28T05:40:52.910Z,4.27
2018-08-28T05:43:20.113Z,4.83
2018-08-28T05:45:47.289Z,4.87
2018-08-28T05:48:14.401Z,4.60
2018-08-28T05:50:41.514Z,4.50
2018-08-28T05:53:08.638Z,4.07
2018-08-28T05:55:35.792Z,4.53
2018-08-28T05:58:03.107Z,4.30
2018-08-28T06:00:30.222Z,4.70
2018-08-28T06:02:57.477Z,4.73
2018-08-28T06:05:24.619Z,4.20
2018-08-28T06:07:51.813Z,4.20
2018-08-28T06:10:19.030Z,4.47
2018-08-28T06:12:46.170Z,4.40
2018-08-28T06:15:13.306Z,4.07
2018-08-28T06:17:40.446Z,4.80
2018-08-28T06:20:07.615Z,4.67
2018-08-28T06:22:34.726Z,5.10
2018-08-28T06:25:02.071Z,5.00
2018-08-28T06:27:29.423Z,4.70
2018-08-28T06:29:56.561Z,4.85
2018-08-28T06:32:23.711Z,5.35
2018-08-28T06:34:50.822Z,5.62
2018-08-28T06:37:18.041Z,5.00
2018-08-28T06:39:45.120Z,5.67
2018-08-28T06:42:12.223Z,5.78
2018-08-28T06:44:39.374Z,5.95
2018-08-28T06:47:06.478Z,5.10
2018-08-28T06:49:33.811Z,5.97
2018-08-28T06:52:01.166Z,5.95
2018-08-28T06:54:28.274Z,5.72
2018-08-28T06:56:55.513Z,5.92
2018-08-28T06:59:22.599Z,5.58
2018-08-28T07:01:49.791Z,5.92
2018-08-28T07:04:16.928Z,6.50
2018-08-28T07:06:44.037Z,6.25
2018-08-28T07:09:11.202Z,6.15
2018-08-28T07:11:38.336Z,6.42
2018-08-28T07:14:05.713Z,5.17
2018-08-28T07:16:32.893Z,5.55
2018-08-28T07:19:00.075Z,5.42
2018-08-28T07:21:27.211Z,6.28
2018-08-28T07:23:54.410Z,5.92
2018-08-28T07:26:21.558Z,6.00
2018-08-28T07:28:48.669Z,5.87
2018-08-28T07:31:15.962Z,6.17
2018-08-28T07:33:43.016Z,6.05
2018-08-28T07:36:10.171Z,5.35
2018-08-28T07:38:37.324Z,5.60
2018-08-28T07:41:04.530Z,6.33
2018-08-28T07:43:31.674Z,6.20
2018-08-28T07:45:59.143Z,6.58
2018-08-28T07:48:26.440Z,5.72
2018-08-28T07:50:53.548Z,6.05
2018-08-28T07:53:20.681Z,5.78
2018-08-28T07:55:47.806Z,6.67
2018-08-28T07:58:14.906Z,5.75
2018-08-28T08:00:42.043Z,6.03
2018-08-28T08:03:09.165Z,5.95
2018-08-28T08:05:36.342Z,6.05
2018-08-28T08:08:03.522Z,6.08
2018-08-28T08:10:30.752Z,6.05
2018-08-28T08:12:57.888Z,6.40
2018-08-28T08:15:25.033Z,5.85
2018-08-28T08:17:52.189Z,5.17
2018-08-28T08:20:19.337Z,6.17
2018-08-28T08:22:46.542Z,6.58
2018-08-28T08:25:13.714Z,5.95
2018-08-28T08:27:40.869Z,6.20
2018-08-28T08:30:08.251Z,6.20
2018-08-28T08:32:35.384Z,6.58
2018-08-28T08:35:02.541Z,6.60
2018-08-28T08:37:29.688Z,6.30
2018-08-28T08:39:56.805Z,6.08
2018-08-28T08:42:24.020Z,6.47
2018-08-28T08:44:51.435Z,6.00
2018-08-28T08:47:18.532Z,6.53
2018-08-28T08:49:45.765Z,7.17
2018-08-28T08:52:12.887Z,6.33
2018-08-28T08:54:40.270Z,6.75
2018-08-28T08:57:07.355Z,7.00
2018-08-28T08:59:34.493Z,6.22
2018-08-28T09:02:01.835Z,6.53
2018-08-28T09:04:28.941Z,6.80
2018-08-28T09:06:56.184Z,7.10
2018-08-28T09:09:23.344Z,6.17
2018-08-28T09:11:50.523Z,7.50
2018-08-28T09:14:17.715Z,7.62
2018-08-28T09:16:44.839Z,7.05
2018-08-28T09:19:11.975Z,6.65
2018-08-28T09:21:39.081Z,6.80
2018-08-28T09:24:06.221Z,7.95
2018-08-28T09:26:33.382Z,7.15
2018-08-28T09:29:00.543Z,7.17
2018-08-28T09:31:27.671Z,6.08
2018-08-28T09:33:54.764Z,6.95
2018-08-28T09:36:22.049Z,5.70
2018-08-28T09:38:49.197Z,5.42
2018-08-28T09:41:16.319Z,6.45
2018-08-28T09:43:43.476Z,6.08
2018-08-28T09:46:10.566Z,7.47
2018-08-28T09:48:37.676Z,7.17
2018-08-28T09:51:04.881Z,6.50
2018-08-28T09:53:32.150Z,5.55
2018-08-28T09:55:59.309Z,6.78
2018-08-28T09:58:26.485Z,6.85
2018-08-28T10:00:59.341Z,5.97
2018-08-28T10:03:26.465Z,5.97
2018-08-28T10:05:53.645Z,6.05
2018-08-28T10:08:20.801Z,5.83
2018-08-28T10:10:47.937Z,6.65
2018-08-28T10:13:15.129Z,5.83
2018-08-28T10:15:42.270Z,5.85
2018-08-28T10:18:09.374Z,6.10
2018-08-28T10:20:36.649Z,6.17
2018-08-28T10:23:04.183Z,6.30
2018-08-28T10:25:31.488Z,5.62
2018-08-28T10:27:58.702Z,6.60
2018-08-28T10:30:26.014Z,5.75
2018-08-28T10:32:53.130Z,6.33
2018-08-28T10:35:20.468Z,5.90
2018-08-28T10:37:47.585Z,6.03
2018-08-28T10:40:14.730Z,5.15
2018-08-28T10:42:41.842Z,5.80
2018-08-28T10:45:08.980Z,6.03
2018-08-28T10:47:36.100Z,5.97
2018-08-28T10:50:03.253Z,6.25
2018-08-28T10:52:30.396Z,5.37
2018-08-28T10:54:57.597Z,6.30
2018-08-28T10:57:24.754Z,6.13
2018-08-28T10:59:51.966Z,6.03
2018-08-28T11:02:19.116Z,5.67
2018-08-28T11:04:46.275Z,5.67
2018-08-28T11:07:13.429Z,6.07
2018-08-28T11:09:40.534Z,6.27
2018-08-28T11:12:07.803Z,5.83
2018-08-28T11:14:35.115Z,5.57
2018-08-28T11:17:02.319Z,5.03
2018-08-28T11:19:29.458Z,5.03
2018-08-28T11:21:56.589Z,4.57
2018-08-28T11:24:23.682Z,5.37
2018-08-28T11:26:50.834Z,4.97
2018-08-28T11:29:17.984Z,5.83
2018-08-28T11:31:45.130Z,5.40
2018-08-28T11:34:12.238Z,5.50
2018-08-28T11:36:39.394Z,5.70
2018-08-28T11:39:06.957Z,6.00
2018-08-28T11:41:34.174Z,5.43
2018-08-28T11:44:01.374Z,6.00
2018-08-28T11:46:28.496Z,5.03
2018-08-28T11:48:55.666Z,5.47
2018-08-28T11:51:22.817Z,6.03
2018-08-28T11:53:49.998Z,5.17
2018-08-28T11:56:17.138Z,5.03
2018-08-28T11:58:44.282Z,6.60
2018-08-28T12:01:11.421Z,6.40
2018-08-28T12:03:38.565Z,5.30
2018-08-28T12:06:05.693Z,6.10
2018-08-28T12:08:32.846Z,5.87
2018-08-28T12:10:59.990Z,5.67
2018-08-28T12:13:27.155Z,5.30
2018-08-28T12:15:54.285Z,6.00
2018-08-28T12:18:21.384Z,6.00
2018-08-28T12:20:48.592Z,5.87
2018-08-28T12:23:15.642Z,4.87
2018-08-28T12:25:42.737Z,5.67
2018-08-28T12:28:09.920Z,5.13
2018-08-28T12:30:37.071Z,4.90
2018-08-28T12:33:04.306Z,6.00
2018-08-28T12:35:31.497Z,5.37
2018-08-28T12:37:58.668Z,5.60
2018-08-28T12:40:25.792Z,5.60
2018-08-28T12:42:52.960Z,5.17
2018-08-28T12:45:20.095Z,5.63
2018-08-28T12:47:47.220Z,5.60
2018-08-28T12:50:14.373Z,4.87
2018-08-28T12:52:41.525Z,5.43
2018-08-28T12:55:08.906Z,5.10
2018-08-28T12:57:36.037Z,5.60
2018-08-28T13:00:03.266Z,5.47
2018-08-28T13:02:30.740Z,5.43
2018-08-28T13:04:57.712Z,5.15
2018-08-28T13:07:24.805Z,4.60
2018-08-28T13:09:51.966Z,4.50
2018-08-28T13:12:19.093Z,5.20
2018-08-28T13:14:46.329Z,5.87
2018-08-28T13:17:13.359Z,5.92
2018-08-28T13:19:40.463Z,6.10
2018-08-28T13:22:07.767Z,5.55
2018-08-28T13:24:35.292Z,5.17
2018-08-28T13:27:02.710Z,5.53
2018-08-28T13:29:30.178Z,5.33
2018-08-28T13:31:57.351Z,5.90
2018-08-28T13:34:24.537Z,5.17
2018-08-28T13:36:51.709Z,5.30
2018-08-28T13:39:18.850Z,6.07
2018-08-28T13:41:46.040Z,6.08
2018-08-28T13:44:13.144Z,5.13
2018-08-28T13:46:40.263Z,6.17
2018-08-28T13:49:07.403Z,6.13
2018-08-28T13:51:34.553Z,6.67
2018-08-28T13:54:01.778Z,5.37
2018-08-28T13:56:28.958Z,6.20
2018-08-28T13:58:56.118Z,4.87
2018-08-28T14:01:23.352Z,5.63
2018-08-28T14:03:50.561Z,5.43
2018-08-28T14:06:17.678Z,5.77
2018-08-28T14:08:44.785Z,4.83
2018-08-28T14:11:11.911Z,6.77
2018-08-28T14:13:39.047Z,5.37
2018-08-28T14:16:06.173Z,5.70
2018-08-28T14:18:33.292Z,5.53
2018-08-28T14:21:00.523Z,5.27
2018-08-28T14:23:27.748Z,5.60
2018-08-28T14:25:54.959Z,5.23
2018-08-28T14:28:22.470Z,5.43
2018-08-28T14:30:49.594Z,5.33
2018-08-28T14:33:16.720Z,5.30
2018-08-28T14:35:43.951Z,5.47
2018-08-28T14:38:10.974Z,5.30
2018-08-28T14:40:38.213Z,5.60
2018-08-28T14:43:05.365Z,6.43
2018-08-28T14:45:32.481Z,5.93
2018-08-28T14:47:59.658Z,5.50
2018-08-28T14:50:26.986Z,5.60
2018-08-28T14:52:54.065Z,5.63
2018-08-28T14:55:21.245Z,6.08
2018-08-28T14:57:48.563Z,4.45
2018-08-28T15:00:15.735Z,5.13
2018-08-28T15:02:42.886Z,5.30
2018-08-28T15:05:10.020Z,5.10
2018-08-28T15:07:37.139Z,5.10
2018-08-28T15:10:04.378Z,5.05
2018-08-28T15:12:31.484Z,5.62
2018-08-28T15:14:58.664Z,5.40
2018-08-28T15:17:25.850Z,5.70
2018-08-28T15:19:53.073Z,5.47
2018-08-28T15:22:20.303Z,5.08
2018-08-28T15:24:47.426Z,4.80
2018-08-28T15:27:14.680Z,5.12
2018-08-28T15:29:41.877Z,5.07
2018-08-28T15:32:09.021Z,5.20
2018-08-28T15:34:36.134Z,4.60
2018-08-28T15:37:03.285Z,5.10
2018-08-28T15:39:30.507Z,4.67
2018-08-28T15:41:57.730Z,4.73
2018-08-28T15:44:24.913Z,5.50
2018-08-28T15:46:52.107Z,4.90
2018-08-28T15:49:19.205Z,4.83
2018-08-28T15:51:46.357Z,4.80
2018-08-28T15:54:13.573Z,4.42
2018-08-28T15:56:40.713Z,5.00
2018-08-28T15:59:08.010Z,5.00
2018-08-28T16:01:34.993Z,4.97
2018-08-28T16:04:02.122Z,4.87
2018-08-28T16:06:29.278Z,4.80
2018-08-28T16:08:56.458Z,5.10
2018-08-28T16:11:23.622Z,5.33
2018-08-28T16:13:50.753Z,4.80
2018-08-28T16:16:17.883Z,4.43
2018-08-28T16:18:45.062Z,5.10
2018-08-28T16:21:12.160Z,4.87
2018-08-28T16:23:41.829Z,4.90
2018-08-28T16:26:08.893Z,5.17
2018-08-28T16:28:36.010Z,5.07
2018-08-28T16:31:03.201Z,4.47
2018-08-28T16:33:30.321Z,5.10
2018-08-28T16:35:57.510Z,4.67
2018-08-28T16:38:24.615Z,5.10
2018-08-28T16:40:51.749Z,5.30
2018-08-28T16:43:18.858Z,3.87
2018-08-28T16:45:45.978Z,5.20
2018-08-28T16:48:13.085Z,4.63
2018-08-28T16:50:40.397Z,4.83
2018-08-28T16:53:07.551Z,4.77
2018-08-28T16:55:34.705Z,4.47
2018-08-28T16:58:01.838Z,4.73
2018-08-28T17:00:28.955Z,4.30
2018-08-28T17:02:56.161Z,5.00
2018-08-28T17:05:23.420Z,4.03
2018-08-28T17:07:50.554Z,4.60
2018-08-28T17:10:17.717Z,4.93
2018-08-28T17:12:44.853Z,4.60
2018-08-28T17:15:12.122Z,4.30
2018-08-28T17:17:39.125Z,4.90
2018-08-28T17:20:06.389Z,4.53
2018-08-28T17:22:33.539Z,4.70
2018-08-28T17:25:00.688Z,4.80
2018-08-28T17:27:27.839Z,4.80
2018-08-28T17:29:55.103Z,4.33
2018-08-28T17:32:22.297Z,4.17
2018-08-28T17:34:49.412Z,4.20
2018-08-28T17:37:16.600Z,4.77
2018-08-28T17:39:43.667Z,5.27
2018-08-28T17:42:10.852Z,4.03
2018-08-28T17:44:38.001Z,4.23
2018-08-28T17:47:05.167Z,4.97
2018-08-28T17:49:32.302Z,4.37
2018-08-28T17:51:59.433Z,4.67
2018-08-28T17:54:26.597Z,4.67
2018-08-28T17:56:53.757Z,4.33
2018-08-28T17:59:20.877Z,4.57
2018-08-28T18:01:48.046Z,5.27
2018-08-28T18:04:15.199Z,4.30
2018-08-28T18:06:42.346Z,4.27
2018-08-28T18:09:09.463Z,4.00
2018-08-28T18:11:36.626Z,4.17
2018-08-28T18:14:03.819Z,4.33
2018-08-28T18:16:31.086Z,4.00
2018-08-28T18:18:58.814Z,3.87
2018-08-28T18:21:25.954Z,4.80
2018-08-28T18:23:53.062Z,4.80
2018-08-28T18:26:20.231Z,4.50
2018-08-28T18:28:47.394Z,3.87
2018-08-28T18:31:14.567Z,4.43
2018-08-28T18:33:41.798Z,4.47
2018-08-28T18:36:09.050Z,4.97
2018-08-28T18:38:36.211Z,5.03
2018-08-28T18:41:03.486Z,4.83
2018-08-28T18:43:30.480Z,4.60
2018-08-28T18:45:57.614Z,4.20
2018-08-28T18:48:24.741Z,4.50
2018-08-28T18:50:51.905Z,4.10
2018-08-28T18:53:19.038Z,4.40
2018-08-28T18:55:46.172Z,4.93
2018-08-28T18:58:13.346Z,4.47
2018-08-28T19:00:40.470Z,4.70
2018-08-28T19:03:07.627Z,4.03
2018-08-28T19:05:34.783Z,4.20
2018-08-28T19:08:01.939Z,4.23
2018-08-28T19:10:29.097Z,4.40
2018-08-28T19:12:56.247Z,4.87
2018-08-28T19:15:23.394Z,4.50
2018-08-28T19:17:51.107Z,4.77
2018-08-28T19:20:18.367Z,5.07
2018-08-28T19:22:45.454Z,4.40
2018-08-28T19:25:12.613Z,4.67
2018-08-28T19:27:39.724Z,4.47
2018-08-28T19:30:06.930Z,4.07
2018-08-28T19:32:34.214Z,4.93
2018-08-28T19:35:01.335Z,4.50
2018-08-28T19:37:28.508Z,4.43
2018-08-28T19:39:55.537Z,4.77
2018-08-28T19:42:22.774Z,5.27
2018-08-28T19:44:49.889Z,5.60
2018-08-28T19:47:17.009Z,4.67
2018-08-28T19:49:44.200Z,4.70
2018-08-28T19:52:11.359Z,4.73
2018-08-28T19:54:38.491Z,4.23
2018-08-28T19:57:05.680Z,4.40
2018-08-28T19:59:32.809Z,4.20
2018-08-28T20:01:59.948Z,4.23
2018-08-28T20:04:27.105Z,4.63
2018-08-28T20:06:54.219Z,4.70
2018-08-28T20:09:21.334Z,4.47
2018-08-28T20:11:48.536Z,4.33
2018-08-28T20:14:15.797Z,4.60
2018-08-28T20:16:42.914Z,4.67
2018-08-28T20:19:10.030Z,4.23
2018-08-28T20:21:37.209Z,4.40
2018-08-28T20:24:04.789Z,4.30
2018-08-28T20:26:32.076Z,4.60
2018-08-28T20:28:59.208Z,4.83
2018-08-28T20:31:26.527Z,4.77
2018-08-28T20:33:53.677Z,4.47
2018-08-28T20:36:20.830Z,4.43
2018-08-28T20:38:47.985Z,4.50
2018-08-28T20:41:15.124Z,4.27
2018-08-28T20:43:42.355Z,4.20
2018-08-28T20:46:09.402Z,4.07
2018-08-28T20:48:36.522Z,4.73
2018-08-28T20:51:03.691Z,4.20
2018-08-28T20:53:30.898Z,4.80
2018-08-28T20:55:58.578Z,4.10
2018-08-28T20:58:25.736Z,4.20
2018-08-28T21:00:52.857Z,3.93
2018-08-28T21:03:19.975Z,4.80
2018-08-28T21:05:47.074Z,5.07
2018-08-28T21:08:14.177Z,4.63
2018-08-28T21:10:41.287Z,4.10
2018-08-28T21:13:08.417Z,4.27
2018-08-28T21:15:35.525Z,5.33
2018-08-28T21:18:02.618Z,4.80
2018-08-28T21:20:29.738Z,4.33
2018-08-28T21:22:56.880Z,4.17
2018-08-28T21:25:23.978Z,4.37
2018-08-28T21:27:51.087Z,4.90
2018-08-28T21:30:18.256Z,4.60
2018-08-28T21:32:45.558Z,4.70
2018-08-28T21:35:12.726Z,4.20
2018-08-28T21:37:40.018Z,4.50
2018-08-28T21:40:07.445Z,4.00
2018-08-28T21:42:34.566Z,4.40
2018-08-28T21:45:01.730Z,4.20
2018-08-28T21:47:28.830Z,4.10
2018-08-28T21:49:55.981Z,3.70
2018-08-28T21:52:23.240Z,4.53
2018-08-28T21:54:50.372Z,3.80
2018-08-28T21:57:17.505Z,4.63
2018-08-28T21:59:44.697Z,4.03
2018-08-28T22:02:11.877Z,4.50
2018-08-28T22:04:39.082Z,4.13
2018-08-28T22:07:12.005Z,4.13
2018-08-28T22:09:40.178Z,4.47
2018-08-28T22:12:07.349Z,3.37
2018-08-28T22:14:34.459Z,4.03
2018-08-28T22:17:01.602Z,4.70
2018-08-28T22:19:28.758Z,5.03
2018-08-28T22:21:55.897Z,4.20
2018-08-28T22:24:23.050Z,4.07
2018-08-28T22:26:50.135Z,4.00
2018-08-28T22:29:17.238Z,4.17
2018-08-28T22:31:44.353Z,3.93
2018-08-28T22:34:11.509Z,4.40
2018-08-28T22:36:38.724Z,3.73
2018-08-28T22:39:06.209Z,4.43
2018-08-28T22:41:33.678Z,4.17
2018-08-28T22:44:00.802Z,4.40
2018-08-28T22:46:27.923Z,3.93
2018-08-28T22:48:55.100Z,4.23
2018-08-28T22:51:22.205Z,4.00
2018-08-28T22:53:49.324Z,4.07
2018-08-28T22:56:16.458Z,4.23
2018-08-28T22:58:43.579Z,4.53
2018-08-28T23:01:10.685Z,4.03
2018-08-28T23:03:37.823Z,4.50
2018-08-28T23:06:04.935Z,4.10
2018-08-28T23:08:32.038Z,4.13
2018-08-28T23:10:59.184Z,4.07
2018-08-28T23:13:26.297Z,4.03
2018-08-28T23:15:53.702Z,4.03
2018-08-28T23:18:20.886Z,3.93
2018-08-28T23:20:47.988Z,3.80
2018-08-28T23:23:15.077Z,4.20
2018-08-28T23:25:42.183Z,4.30
2018-08-28T23:28:09.331Z,3.47
2018-08-28T23:30:36.491Z,4.37
2018-08-28T23:33:03.800Z,3.77
2018-08-28T23:35:30.915Z,3.50
2018-08-28T23:37:58.006Z,3.90
2018-08-28T23:40:25.171Z,4.23
2018-08-28T23:42:52.295Z,4.10
2018-08-28T23:45:19.438Z,4.23
2018-08-28T23:47:46.526Z,4.17
2018-08-28T23:50:13.841Z,4.10
2018-08-28T23:52:41.033Z,3.80
2018-08-28T23:55:08.177Z,4.10
2018-08-28T23:57:35.289Z,4.17
